createdAt,value
2022-12-17T00:06:05.998Z,9.1
2022-12-17T00:13:38.597Z,9.6
2022-12-17T00:21:11.145Z,8.6
2022-12-17T00:28:43.418Z,8.8
2022-12-17T00:36:15.686Z,7.9
2022-12-17T00:43:48.002Z,9.6
2022-12-17T00:51:20.266Z,9.3
2022-12-17T00:58:52.547Z,8.8
2022-12-17T01:06:24.852Z,8.5
2022-12-17T01:13:57.166Z,9.2
2022-12-17T01:21:29.524Z,8.7
2022-12-17T01:29:01.793Z,10.0
2022-12-17T01:36:34.039Z,10.7
2022-12-17T01:44:06.308Z,8.5
2022-12-17T01:51:38.583Z,9.0
2022-12-17T01:59:10.885Z,8.2
2022-12-17T02:06:43.197Z,7.0
2022-12-17T02:14:15.491Z,7.5
2022-12-17T02:21:47.762Z,8.1
2022-12-17T02:29:20.069Z,6.8
2022-12-17T02:36:52.351Z,7.8
2022-12-17T02:44:24.614Z,6.4
2022-12-17T02:51:56.887Z,6.6
2022-12-17T02:59:29.188Z,7.8
2022-12-17T03:07:01.472Z,8.9
2022-12-17T03:14:33.743Z,7.0
2022-12-17T03:22:06.019Z,5.2
2022-12-17T03:29:38.317Z,5.9
2022-12-17T03:37:10.588Z,6.6
2022-12-17T03:44:42.890Z,6.0
2022-12-17T03:52:15.213Z,7.6
2022-12-17T03:59:47.490Z,6.8
2022-12-17T04:07:19.789Z,7.0
2022-12-17T04:14:52.092Z,6.0
2022-12-17T04:22:24.410Z,4.5
2022-12-17T04:29:56.689Z,5.9
2022-12-17T04:37:28.984Z,6.2
2022-12-17T04:45:01.297Z,4.7
2022-12-17T04:52:33.571Z,5.6
2022-12-17T05:00:05.834Z,5.9
2022-12-17T05:07:38.129Z,5.5
2022-12-17T05:15:10.404Z,6.2
2022-12-17T05:22:42.709Z,4.8
2022-12-17T05:30:15.016Z,4.8
2022-12-17T05:37:47.282Z,5.0
2022-12-17T05:45:19.552Z,4.7
2022-12-17T05:52:51.874Z,4.5
2022-12-17T06:00:24.148Z,4.0
2022-12-17T06:07:56.436Z,5.4
2022-12-17T06:15:28.870Z,5.1
2022-12-17T06:23:01.154Z,4.6
2022-12-17T06:26:40.674Z,5.3
2022-12-17T06:27:27.955Z,5.0
2022-12-17T06:28:15.260Z,4.7
2022-12-17T06:29:02.570Z,5.9
2022-12-17T06:29:49.855Z,4.8
2022-12-17T06:30:37.112Z,6.5
2022-12-17T06:31:24.491Z,11.7
2022-12-17T06:32:11.841Z,6.5
2022-12-17T06:32:59.095Z,5.6
2022-12-17T06:33:46.372Z,5.2
2022-12-17T06:34:33.664Z,5.6
2022-12-17T06:35:20.948Z,5.4
2022-12-17T06:36:08.215Z,5.6
2022-12-17T06:36:55.527Z,6.4
2022-12-17T06:37:42.818Z,6.7
2022-12-17T06:38:30.125Z,7.3
2022-12-17T06:39:17.392Z,5.8
2022-12-17T06:40:04.692Z,7.7
2022-12-17T06:40:52.002Z,5.7
2022-12-17T06:41:39.712Z,6.3
2022-12-17T06:42:27.016Z,6.4
2022-12-17T06:43:14.290Z,6.4
2022-12-17T06:44:01.637Z,6.8
2022-12-17T06:44:48.918Z,11.5
2022-12-17T06:45:36.225Z,8.8
2022-12-17T06:46:23.543Z,7.8
2022-12-17T06:47:10.941Z,13.4
2022-12-17T06:47:58.290Z,12.4
2022-12-17T06:48:45.607Z,7.4
2022-12-17T06:49:32.874Z,6.3
2022-12-17T06:50:20.182Z,6.5
2022-12-17T06:51:07.492Z,5.5
2022-12-17T06:51:54.803Z,6.9
2022-12-17T06:52:42.124Z,6.2
2022-12-17T06:53:29.422Z,6.3
2022-12-17T06:54:16.695Z,6.1
2022-12-17T06:55:03.989Z,6.2
2022-12-17T06:55:51.325Z,9.4
2022-12-17T06:56:38.638Z,8.9
2022-12-17T06:57:25.915Z,9.0
2022-12-17T06:58:13.238Z,8.5
2022-12-17T06:59:00.499Z,9.9
2022-12-17T06:59:47.759Z,5.9
2022-12-17T07:00:35.129Z,6.4
2022-12-17T07:01:22.527Z,7.5
2022-12-17T07:02:10.014Z,13.7
2022-12-17T07:02:57.541Z,6.5
2022-12-17T07:03:44.920Z,6.0
2022-12-17T07:04:32.199Z,6.1
2022-12-17T07:05:19.515Z,6.5
2022-12-17T07:06:06.784Z,6.4
2022-12-17T07:06:54.069Z,6.8
2022-12-17T07:07:41.413Z,8.0
2022-12-17T07:08:28.732Z,7.2
2022-12-17T07:09:16.011Z,6.5
2022-12-17T07:10:03.361Z,7.1
2022-12-17T07:10:50.642Z,6.6
2022-12-17T07:11:37.966Z,6.2
2022-12-17T07:12:25.252Z,10.5
2022-12-17T07:13:12.530Z,7.3
2022-12-17T07:13:59.792Z,8.6
2022-12-17T07:14:47.158Z,11.0
2022-12-17T07:15:34.443Z,9.1
2022-12-17T07:16:21.850Z,8.2
2022-12-17T07:17:09.143Z,8.4
2022-12-17T07:17:56.404Z,10.6
2022-12-17T07:18:43.704Z,12.9
2022-12-17T07:19:31.044Z,8.3
2022-12-17T07:20:18.331Z,8.4
2022-12-17T07:21:05.597Z,8.4
2022-12-17T07:21:52.910Z,8.2
2022-12-17T07:22:40.209Z,9.0
2022-12-17T07:23:27.546Z,8.7
2022-12-17T07:24:14.812Z,8.6
2022-12-17T07:25:02.081Z,9.7
2022-12-17T07:25:49.383Z,9.4
2022-12-17T07:26:36.659Z,7.2
2022-12-17T07:27:23.956Z,10.1
2022-12-17T07:28:11.222Z,8.1
2022-12-17T07:28:58.542Z,7.8
2022-12-17T07:29:45.831Z,7.5
2022-12-17T07:30:33.124Z,8.5
2022-12-17T07:31:20.651Z,11.7
2022-12-17T07:32:08.110Z,9.1
2022-12-17T07:32:55.432Z,7.9
2022-12-17T07:33:42.724Z,9.0
2022-12-17T07:34:29.991Z,7.8
2022-12-17T07:35:17.297Z,7.9
2022-12-17T07:36:04.574Z,12.0
2022-12-17T07:36:51.891Z,14.4
2022-12-17T07:37:39.849Z,36.0
2022-12-17T07:38:27.174Z,33.7
2022-12-17T07:39:14.454Z,20.6
2022-12-17T07:40:01.739Z,19.1
2022-12-17T07:40:49.024Z,19.3
2022-12-17T07:41:36.295Z,14.9
2022-12-17T07:42:23.571Z,13.3
2022-12-17T07:43:10.854Z,12.7
2022-12-17T07:43:58.114Z,13.9
2022-12-17T07:44:45.383Z,12.4
2022-12-17T07:45:32.721Z,7.9
2022-12-17T07:46:20.117Z,12.3
2022-12-17T07:47:07.451Z,10.0
2022-12-17T07:47:54.773Z,9.0
2022-12-17T07:48:42.095Z,11.1
2022-12-17T07:49:29.408Z,9.9
2022-12-17T07:50:16.713Z,12.6
2022-12-17T07:51:03.974Z,9.2
2022-12-17T07:51:51.281Z,10.5
2022-12-17T07:52:38.584Z,9.5
2022-12-17T07:53:25.938Z,16.3
2022-12-17T07:54:13.245Z,11.0
2022-12-17T07:55:00.533Z,10.6
2022-12-17T07:55:47.879Z,15.3
2022-12-17T07:56:35.210Z,10.5
2022-12-17T07:57:22.516Z,15.9
2022-12-17T07:58:09.820Z,20.9
2022-12-17T07:58:57.103Z,14.9
2022-12-17T07:59:44.430Z,14.7
2022-12-17T08:00:31.702Z,18.2
2022-12-17T08:01:19.034Z,15.6
2022-12-17T08:02:06.550Z,17.3
2022-12-17T08:02:54.061Z,17.2
2022-12-17T08:03:41.809Z,11.9
2022-12-17T08:04:29.420Z,11.4
2022-12-17T08:05:16.768Z,20.4
2022-12-17T08:06:04.041Z,10.2
2022-12-17T08:06:55.127Z,9.8
2022-12-17T08:07:45.729Z,18.1
2022-12-17T08:08:33.185Z,7.1
2022-12-17T08:09:20.497Z,9.5
2022-12-17T08:10:07.759Z,7.7
2022-12-17T08:10:55.204Z,11.6
2022-12-17T08:11:42.509Z,10.7
2022-12-17T08:12:29.776Z,9.5
2022-12-17T08:13:17.216Z,7.7
2022-12-17T08:14:04.486Z,19.9
2022-12-17T08:14:51.805Z,13.4
2022-12-17T08:15:39.204Z,12.4
2022-12-17T08:16:26.592Z,12.2
2022-12-17T08:17:13.964Z,13.5
2022-12-17T08:18:01.361Z,8.5
2022-12-17T08:18:48.702Z,10.9
2022-12-17T08:19:36.022Z,8.3
2022-12-17T08:20:23.501Z,7.5
2022-12-17T08:21:10.837Z,7.2
2022-12-17T08:21:58.135Z,8.2
2022-12-17T08:22:45.546Z,11.4
2022-12-17T08:23:32.934Z,16.2
2022-12-17T08:24:20.538Z,13.7
2022-12-17T08:25:07.801Z,16.6
2022-12-17T08:25:55.066Z,16.7
2022-12-17T08:26:47.486Z,19.3
2022-12-17T08:27:35.325Z,23.0
2022-12-17T08:29:19.989Z,21.8
2022-12-17T08:30:07.367Z,11.8
2022-12-17T08:30:54.724Z,10.9
2022-12-17T08:31:42.053Z,19.1
2022-12-17T08:32:29.485Z,9.8
2022-12-17T08:33:16.755Z,9.8
2022-12-17T08:34:07.823Z,13.0
2022-12-17T08:34:55.413Z,9.5
2022-12-17T08:35:42.848Z,11.9
2022-12-17T08:36:30.160Z,9.5
2022-12-17T08:37:17.437Z,14.1
2022-12-17T08:38:04.878Z,11.2
2022-12-17T08:38:52.174Z,8.4
2022-12-17T08:39:39.733Z,15.0
2022-12-17T08:40:27.170Z,10.7
2022-12-17T08:41:14.433Z,9.9
2022-12-17T08:42:04.482Z,6.4
2022-12-17T08:42:52.105Z,7.6
2022-12-17T08:43:39.880Z,10.2
2022-12-17T08:44:27.489Z,8.6
2022-12-17T08:45:14.788Z,10.1
2022-12-17T08:46:02.137Z,12.0
2022-12-17T08:46:49.469Z,12.6
2022-12-17T08:47:36.777Z,7.2
2022-12-17T08:48:24.084Z,11.3
2022-12-17T08:49:11.443Z,9.6
2022-12-17T08:49:58.731Z,14.6
2022-12-17T08:50:45.987Z,9.2
2022-12-17T08:51:33.476Z,21.7
2022-12-17T08:52:20.747Z,9.5
2022-12-17T08:53:08.031Z,8.7
2022-12-17T08:53:55.480Z,8.9
2022-12-17T08:54:42.751Z,12.2
2022-12-17T08:55:30.051Z,10.7
2022-12-17T08:56:17.439Z,8.5
2022-12-17T08:57:04.737Z,9.5
2022-12-17T08:57:52.002Z,10.4
2022-12-17T08:58:39.431Z,8.7
2022-12-17T08:59:27.196Z,10.4
2022-12-17T09:00:14.467Z,14.0
2022-12-17T09:01:01.981Z,9.1
2022-12-17T09:01:49.410Z,10.4
2022-12-17T09:02:36.935Z,8.3
2022-12-17T09:03:24.394Z,9.9
2022-12-17T09:04:11.724Z,10.1
2022-12-17T09:04:59.029Z,10.9
2022-12-17T09:05:46.422Z,9.5
2022-12-17T09:06:38.903Z,9.1
2022-12-17T09:07:26.648Z,9.4
2022-12-17T09:08:14.046Z,13.0
2022-12-17T09:09:01.405Z,11.0
2022-12-17T09:09:48.710Z,12.2
2022-12-17T09:10:36.082Z,10.0
2022-12-17T09:11:23.357Z,13.8
2022-12-17T09:12:10.658Z,26.4
2022-12-17T09:13:04.226Z,25.1
2022-12-17T09:13:52.117Z,21.8
2022-12-17T09:14:39.508Z,27.7
2022-12-17T09:15:26.775Z,26.2
2022-12-17T09:16:14.153Z,32.3
2022-12-17T09:17:01.567Z,38.1
2022-12-17T09:17:48.962Z,33.4
2022-12-17T09:18:36.591Z,41.8
2022-12-17T09:19:23.936Z,40.9
2022-12-17T09:20:11.248Z,41.5
2022-12-17T09:20:58.555Z,31.7
2022-12-17T09:21:45.956Z,26.8
2022-12-17T09:22:33.291Z,34.6
2022-12-17T09:23:20.603Z,35.3
2022-12-17T09:24:08.001Z,30.4
2022-12-17T09:24:55.316Z,31.3
2022-12-17T09:25:42.629Z,37.6
2022-12-17T09:26:30.008Z,47.1
2022-12-17T09:27:17.317Z,46.1
2022-12-17T09:28:04.624Z,38.6
2022-12-17T09:28:52.052Z,29.7
2022-12-17T09:29:39.362Z,44.4
2022-12-17T09:30:26.688Z,49.0
2022-12-17T09:31:14.169Z,26.4
2022-12-17T09:32:01.508Z,39.6
2022-12-17T09:32:48.775Z,49.4
2022-12-17T09:33:36.534Z,39.2
2022-12-17T09:34:24.260Z,82.4
2022-12-17T09:35:11.583Z,50.9
2022-12-17T09:35:58.878Z,43.6
2022-12-17T09:36:51.051Z,44.3
2022-12-17T09:37:38.626Z,31.9
2022-12-17T09:38:25.921Z,45.9
2022-12-17T09:39:13.235Z,44.2
2022-12-17T09:40:00.536Z,43.7
2022-12-17T09:40:47.961Z,47.3
2022-12-17T09:41:35.270Z,44.5
2022-12-17T09:42:22.591Z,38.9
2022-12-17T09:43:10.002Z,41.3
2022-12-17T09:43:57.324Z,61.3
2022-12-17T09:44:44.622Z,40.6
2022-12-17T09:45:32.031Z,34.6
2022-12-17T09:46:19.362Z,37.8
2022-12-17T09:47:06.647Z,26.3
2022-12-17T09:47:54.101Z,30.5
2022-12-17T09:48:41.427Z,25.5
2022-12-17T09:49:28.711Z,24.6
2022-12-17T09:50:16.156Z,28.0
2022-12-17T09:51:03.492Z,25.6
2022-12-17T09:51:50.751Z,23.9
2022-12-17T09:52:38.202Z,18.5
2022-12-17T09:53:25.496Z,35.1
2022-12-17T09:54:12.796Z,29.1
2022-12-17T09:55:01.639Z,30.7
2022-12-17T09:55:49.195Z,19.2
2022-12-17T09:56:36.553Z,19.2
2022-12-17T09:57:23.831Z,17.6
2022-12-17T09:58:11.144Z,25.6
2022-12-17T09:58:58.551Z,19.1
2022-12-17T09:59:45.837Z,22.0
2022-12-17T10:00:33.141Z,14.9
2022-12-17T10:01:20.570Z,17.7
2022-12-17T10:02:08.020Z,21.1
2022-12-17T10:02:55.567Z,15.4
2022-12-17T10:03:43.352Z,21.5
2022-12-17T10:04:30.792Z,24.7
2022-12-17T10:05:18.112Z,90.9
2022-12-17T10:06:05.408Z,48.7
2022-12-17T10:06:52.743Z,50.1
2022-12-17T10:07:40.049Z,50.4
2022-12-17T10:08:27.401Z,35.3
2022-12-17T10:09:14.739Z,36.0
2022-12-17T10:10:02.034Z,24.1
2022-12-17T10:10:49.328Z,26.0
2022-12-17T10:11:36.684Z,25.0
2022-12-17T10:12:24.009Z,25.2
2022-12-17T10:13:11.307Z,30.5
2022-12-17T10:13:58.594Z,29.3
2022-12-17T10:14:45.892Z,21.8
2022-12-17T10:15:33.277Z,21.4
2022-12-17T10:16:20.679Z,23.4
2022-12-17T10:17:11.830Z,21.3
2022-12-17T10:17:59.583Z,26.0
2022-12-17T10:18:46.992Z,25.8
2022-12-17T10:19:34.302Z,19.2
2022-12-17T10:20:21.587Z,19.3
2022-12-17T10:21:08.974Z,18.5
2022-12-17T10:21:56.255Z,22.4
2022-12-17T10:22:43.542Z,16.7
2022-12-17T10:23:30.961Z,19.9
2022-12-17T10:24:18.692Z,16.6
2022-12-17T10:25:06.041Z,16.3
2022-12-17T10:25:53.477Z,16.2
2022-12-17T10:26:40.785Z,14.0
2022-12-17T10:27:28.066Z,19.2
2022-12-17T10:28:15.508Z,18.9
2022-12-17T10:29:02.797Z,14.1
2022-12-17T10:29:50.096Z,14.3
2022-12-17T10:30:37.463Z,11.3
2022-12-17T10:31:24.884Z,22.8
2022-12-17T10:32:12.207Z,12.3
2022-12-17T10:32:59.602Z,21.8
2022-12-17T10:33:46.867Z,14.6
2022-12-17T10:34:34.150Z,16.0
2022-12-17T10:35:21.603Z,16.3
2022-12-17T10:36:08.911Z,14.4
2022-12-17T10:36:56.179Z,13.4
2022-12-17T10:37:43.656Z,17.2
2022-12-17T10:38:30.939Z,11.7
2022-12-17T10:39:18.219Z,15.2
2022-12-17T10:40:05.672Z,14.6
2022-12-17T10:40:52.977Z,14.6
2022-12-17T10:41:40.289Z,19.4
2022-12-17T10:42:31.468Z,17.3
2022-12-17T10:43:21.706Z,10.6
2022-12-17T10:44:09.124Z,10.4
2022-12-17T10:44:56.408Z,11.1
2022-12-17T10:45:43.771Z,8.8
2022-12-17T10:46:31.228Z,12.3
2022-12-17T10:47:18.608Z,15.5
2022-12-17T10:48:05.875Z,9.2
2022-12-17T10:48:53.349Z,10.3
2022-12-17T10:49:40.623Z,11.0
2022-12-17T10:50:27.929Z,11.5
2022-12-17T10:51:15.329Z,9.7
2022-12-17T10:52:03.354Z,9.8
2022-12-17T10:52:50.682Z,13.5
2022-12-17T10:53:38.345Z,12.0
2022-12-17T10:54:26.100Z,11.9
2022-12-17T10:55:13.379Z,9.6
2022-12-17T10:56:00.656Z,16.3
2022-12-17T10:56:48.091Z,12.6
2022-12-17T10:57:35.554Z,10.4
2022-12-17T10:58:22.839Z,10.8
2022-12-17T10:59:10.316Z,18.0
2022-12-17T10:59:57.636Z,12.7
2022-12-17T11:00:49.661Z,19.4
2022-12-17T11:01:37.900Z,11.2
2022-12-17T11:02:25.440Z,10.4
2022-12-17T11:03:12.857Z,20.0
2022-12-17T11:04:00.246Z,11.3
2022-12-17T11:04:47.641Z,9.9
2022-12-17T11:05:34.932Z,12.5
2022-12-17T11:06:22.222Z,10.9
2022-12-17T11:07:09.661Z,19.1
2022-12-17T11:07:56.928Z,10.1
2022-12-17T11:08:44.200Z,8.8
2022-12-17T11:09:31.616Z,10.5
2022-12-17T11:10:18.926Z,13.4
2022-12-17T11:11:06.247Z,13.8
2022-12-17T11:11:53.624Z,8.9
2022-12-17T11:12:41.644Z,15.3
2022-12-17T11:13:28.937Z,15.9
2022-12-17T11:14:16.249Z,13.0
2022-12-17T11:15:03.544Z,13.4
2022-12-17T11:15:50.872Z,11.9
2022-12-17T11:16:38.209Z,9.0
2022-12-17T11:17:25.592Z,9.3
2022-12-17T11:18:12.896Z,11.5
2022-12-17T11:19:00.291Z,12.5
2022-12-17T11:19:47.623Z,11.7
2022-12-17T11:20:34.929Z,10.1
2022-12-17T11:21:22.245Z,11.4
2022-12-17T11:22:09.641Z,14.9
2022-12-17T11:22:56.916Z,8.1
2022-12-17T11:30:30.906Z,18.9
2022-12-17T11:38:03.519Z,15.2
2022-12-17T11:45:35.845Z,13.6
2022-12-17T11:53:08.129Z,9.8
2022-12-17T12:00:40.442Z,8.9
2022-12-17T12:08:12.769Z,9.0
2022-12-17T12:15:45.173Z,6.6
2022-12-17T12:23:17.542Z,9.1
2022-12-17T12:30:49.819Z,7.3
2022-12-17T12:38:22.091Z,7.2
2022-12-17T12:45:54.445Z,7.0
2022-12-17T12:53:26.955Z,6.8
2022-12-17T13:00:59.305Z,7.4
2022-12-17T13:08:31.853Z,5.9
2022-12-17T13:16:04.184Z,6.3
2022-12-17T13:23:36.475Z,5.8
2022-12-17T13:31:08.743Z,5.5
2022-12-17T13:38:41.473Z,5.7
2022-12-17T13:46:14.005Z,6.2
2022-12-17T13:53:46.371Z,6.7
2022-12-17T14:01:18.788Z,5.3
2022-12-17T14:08:51.186Z,5.7
2022-12-17T14:16:23.515Z,6.8
2022-12-17T14:23:55.847Z,4.6
2022-12-17T14:31:28.872Z,5.0
2022-12-17T14:39:01.525Z,4.3
2022-12-17T14:46:33.836Z,4.4
2022-12-17T14:54:06.108Z,4.9
2022-12-17T15:01:38.417Z,4.1
2022-12-17T15:09:10.779Z,4.3
2022-12-17T15:16:43.141Z,5.6
2022-12-17T15:24:15.537Z,4.1
2022-12-17T15:31:48.842Z,4.4
2022-12-17T15:39:21.163Z,4.1
2022-12-17T15:46:53.483Z,2.6
2022-12-17T15:54:25.910Z,3.4
2022-12-17T16:01:58.289Z,2.7
2022-12-17T16:09:30.749Z,4.0
2022-12-17T16:17:03.023Z,5.3
2022-12-17T16:24:35.331Z,4.0
2022-12-17T16:32:07.642Z,4.3
2022-12-17T16:39:39.948Z,3.3
2022-12-17T16:47:12.227Z,3.8
2022-12-17T16:54:44.496Z,3.7
2022-12-17T17:02:16.911Z,3.7
2022-12-17T17:09:49.336Z,4.0
2022-12-17T17:17:54.256Z,4.1
2022-12-17T17:25:03.874Z,4.5
2022-12-17T17:32:36.297Z,6.3
2022-12-17T17:40:08.640Z,4.5
2022-12-17T17:47:40.914Z,5.2
2022-12-17T17:55:13.183Z,5.5
2022-12-17T18:02:45.633Z,4.7
2022-12-17T18:10:18.055Z,4.9
2022-12-17T18:17:50.377Z,4.8
2022-12-17T18:25:22.660Z,4.2
2022-12-17T18:32:54.964Z,5.4
2022-12-17T18:40:32.937Z,4.3
2022-12-17T18:48:05.693Z,4.7
2022-12-17T18:55:37.971Z,7.8
2022-12-17T19:03:10.416Z,4.2
2022-12-17T19:10:42.785Z,5.5
2022-12-17T19:18:15.086Z,4.3
2022-12-17T19:25:47.394Z,4.1
2022-12-17T19:33:19.705Z,4.3
2022-12-17T19:40:51.972Z,5.2
2022-12-17T19:48:25.440Z,4.7
2022-12-17T19:55:57.707Z,4.9
2022-12-17T20:03:30.064Z,4.3
2022-12-17T20:11:02.407Z,5.0
2022-12-17T20:18:34.682Z,3.6
2022-12-17T20:26:06.966Z,5.7
2022-12-17T20:33:39.232Z,4.9
2022-12-17T20:41:11.547Z,4.9
2022-12-17T20:48:43.865Z,5.1
2022-12-17T20:56:16.175Z,7.8
2022-12-17T21:03:48.541Z,4.5
2022-12-17T21:11:20.865Z,3.9
2022-12-17T21:18:53.180Z,4.8
2022-12-17T21:26:25.502Z,4.7
2022-12-17T21:33:57.809Z,4.4
2022-12-17T21:41:31.220Z,4.1
2022-12-17T21:49:03.560Z,4.1
2022-12-17T21:56:36.129Z,4.4
2022-12-17T22:04:08.439Z,5.6
2022-12-17T22:11:40.797Z,3.9
2022-12-17T22:19:13.330Z,3.2
2022-12-17T22:26:46.742Z,4.0
2022-12-17T22:34:29.986Z,4.2
2022-12-17T22:44:38.907Z,4.4
2022-12-17T22:49:44.192Z,3.5
2022-12-17T22:57:34.767Z,3.4
2022-12-17T23:04:59.228Z,3.4
2022-12-17T23:12:31.515Z,3.4
2022-12-17T23:20:03.828Z,3.3
2022-12-17T23:27:36.176Z,3.9
2022-12-17T23:35:08.448Z,4.1
2022-12-17T23:42:41.945Z,3.6
2022-12-17T23:50:14.235Z,3.8
2022-12-17T23:57:46.553Z,4.1
